ADDS METAR Data INFO
IDs: Format: Raw Decoded Include TAF

Data at: 0311 UTC 17 Jan 2018

KTWF 170253Z 28004KT 10SM OVC055 03/02 A3033 RMK AO2 SLP277 T00280017 53008
KTWF 170153Z 20007KT 10SM SCT035 OVC043 04/02 A3032 RMK AO2 SLP271 T00390022
KTWF 170053Z 18006KT 10SM SCT028 BKN037 OVC065 03/02 A3030 RMK AO2 SLP268 T00280017
KTWF 170050Z 17006KT 10SM SCT028 BKN037 OVC065 03/02 A3030 RMK AO2
KTWF 170035Z 18007KT 10SM BKN029 BKN034 OVC049 03/01 A3030 RMK AO2 T00280011
KTWF 162353Z 19008KT 10SM BKN032 OVC045 03/01 A3031 RMK AO2 SLP269 T00280011 10061 20006 53008
KTWF 162253Z 23008KT 10SM SCT032 BKN047 OVC055 03/00 A3030 RMK AO2 SLP264 T00330000
KTWF 162153Z 26016KT 10SM BKN065 OVC090 04/00 A3029 RMK AO2 SLP259 T00390000
KTWF 162053Z 27012KT 10SM FEW090 BKN120 06/01 A3028 RMK AO2 SLP252 T00560006 58006
KTWF 161953Z 07004KT 10SM BKN100 03/M01 A3029 RMK AO2 SLP259 T00331011
KTWF 161853Z 09007KT 10SM SCT100 02/M01 A3029 RMK AO2 SLP261 T00221011
KTWF 161753Z 07005KT 10SM OVC100 01/M02 A3030 RMK AO2 SLP266 T00061017 10006 21028 53018
KTWF 161653Z 07008KT 10SM SCT120 00/M02 A3027 RMK AO2 SLP256 T00001022
KTWF 161553Z 08010KT 10SM FEW120 M01/M03 A3025 RMK AO2 SLP252 T10111028
KTWF 161453Z 08009KT 10SM CLR M02/M03 A3024 RMK AO2 SLP247 T10221033 53000
KTWF 161353Z 08008KT 10SM CLR M02/M03 A3024 RMK AO2 SLP245 T10221033
KTWF 161253Z 08009KT 10SM CLR M02/M03 A3023 RMK AO2 SLP242 T10221028
KTWF 161153Z AUTO 07009KT 10SM CLR M02/M03 A3024 RMK AO2 SLP241 T10171028 10006 21017 51002
KTWF 161053Z AUTO 08010KT 10SM CLR M02/M03 A3024 RMK AO2 SLP239 T10171028
KTWF 160953Z AUTO 07011KT 10SM CLR M01/M02 A3024 RMK AO2 SLP240 T10111022
KTWF 160853Z AUTO 06009KT 10SM CLR M01/M02 A3023 RMK AO2 SLP236 T10061022 56009
KTWF 160753Z AUTO 07009KT 10SM CLR 00/M02 A3024 RMK AO2 SLP241 T00001022
KTWF 160653Z AUTO 09010KT 10SM CLR 00/M02 A3025 RMK AO2 SLP246 T00001022 400671033
KTWF 160553Z AUTO 08008KT 10SM CLR 01/M02 A3026 RMK AO2 SLP251 T00061017 10044 20006 56001
KTWF 160453Z AUTO 09012KT 10SM CLR 02/M02 A3026 RMK AO2 SLP254 T00171017
KTWF 160353Z AUTO 09012KT 10SM CLR 01/M01 A3026 RMK AO2 SLP255 T00111011
KTWF 160253Z 08013KT 10SM CLR 02/M02 A3026 RMK AO2 SLP256 T00221017 50001
KTWF 160153Z 08012KT 10SM CLR 03/M01 A3027 RMK AO2 SLP256 T00281011
KTWF 160053Z 08011KT 10SM CLR 03/M01 A3027 RMK AO2 SLP256 T00331006
KTWF 152353Z 06012KT 10SM CLR 04/01 A3026 RMK AO2 SLP252 T00440011 10067 20011 58001
KTWF 152253Z 07009KT 10SM CLR 06/02 A3027 RMK AO2 SLP253 T00560017
KTWF 152153Z 06013KT 10SM CLR 07/02 A3026 RMK AO2 SLP247 T00670022
KTWF 152053Z 06015KT 10SM CLR 06/01 A3026 RMK AO2 SLP251 T00560011 58019
KTWF 151953Z 07015KT 10SM CLR 04/01 A3029 RMK AO2 SLP260 T00440006
KTWF 151853Z 08010KT 10SM CLR 03/01 A3031 RMK AO2 SLP270 T00280011
KTWF 151753Z 07011KT 10SM CLR 01/00 A3033 RMK AO2 SLP278 I6000 T00110000 10011 21033 51006
KTWF 151653Z 07010KT 7SM CLR M01/M01 A3032 RMK AO2 SLP278 T10061011
KTWF 151553Z 08008KT 8SM CLR M02/M03 A3032 RMK AO2 SLP278 T10221028